createdAt,value
2022-10-13T00:00:05.164Z,10.86
2022-10-13T00:03:09.488Z,10.88
2022-10-13T00:06:16.465Z,10.87
2022-10-13T00:09:20.753Z,10.88
2022-10-13T00:12:24.715Z,10.92
2022-10-13T00:15:28.557Z,10.95
2022-10-13T00:18:32.576Z,10.99
2022-10-13T00:21:36.550Z,11.03
2022-10-13T00:24:40.895Z,10.98
2022-10-13T00:27:44.687Z,10.95
2022-10-13T00:30:48.667Z,10.92
2022-10-13T00:33:53.851Z,10.93
2022-10-13T00:36:57.967Z,10.90
2022-10-13T00:40:01.834Z,10.87
2022-10-13T00:43:16.196Z,10.85
2022-10-13T00:46:22.382Z,10.81
2022-10-13T00:49:26.913Z,10.82
2022-10-13T00:52:32.927Z,10.83
2022-10-13T00:55:38.539Z,10.87
2022-10-13T00:58:44.083Z,10.79
2022-10-13T01:01:51.344Z,10.81
2022-10-13T01:04:57.238Z,10.82
2022-10-13T01:08:02.278Z,10.85
2022-10-13T01:11:31.395Z,10.96
2022-10-13T01:14:49.910Z,11.00
2022-10-13T01:18:20.347Z,10.94
2022-10-13T01:21:43.410Z,10.92
2022-10-13T01:24:52.561Z,10.96
2022-10-13T01:28:30.587Z,10.95
2022-10-13T01:31:38.299Z,10.97
2022-10-13T01:35:06.962Z,10.91
2022-10-13T01:38:25.095Z,10.87
2022-10-13T01:41:39.882Z,10.91
2022-10-13T01:44:50.569Z,10.95
2022-10-13T01:47:55.169Z,10.90
2022-10-13T01:51:00.309Z,10.91
2022-10-13T01:54:04.323Z,10.86
2022-10-13T01:57:32.471Z,10.88
2022-10-13T02:00:43.727Z,10.81
2022-10-13T02:04:08.714Z,10.68
2022-10-13T02:07:36.657Z,10.77
2022-10-13T02:10:51.310Z,10.74
2022-10-13T02:14:10.233Z,10.62
2022-10-13T02:17:15.669Z,10.62
2022-10-13T02:20:20.657Z,10.64
2022-10-13T02:23:25.373Z,10.77
2022-10-13T02:26:32.047Z,10.77
2022-10-13T02:29:50.191Z,10.79
2022-10-13T02:32:54.495Z,10.84
2022-10-13T02:35:58.452Z,10.84
2022-10-13T02:39:02.314Z,10.86
2022-10-13T02:42:09.064Z,10.89
2022-10-13T02:45:12.882Z,10.90
2022-10-13T02:48:16.907Z,10.88
2022-10-13T02:51:21.093Z,10.89
2022-10-13T02:54:25.044Z,10.89
2022-10-13T02:57:28.917Z,10.88
2022-10-13T03:00:33.070Z,10.87
2022-10-13T03:03:37.405Z,10.85
2022-10-13T03:06:41.483Z,10.84
2022-10-13T03:09:45.292Z,10.82
2022-10-13T03:12:49.095Z,10.81
2022-10-13T03:15:52.999Z,10.75
2022-10-13T03:18:57.279Z,10.74
2022-10-13T03:22:01.092Z,10.70
2022-10-13T03:25:05.325Z,10.66
2022-10-13T03:28:09.101Z,10.56
2022-10-13T03:31:13.011Z,10.54
2022-10-13T03:34:17.570Z,10.51
2022-10-13T03:37:21.492Z,10.44
2022-10-13T03:40:25.309Z,10.42
2022-10-13T03:43:29.485Z,10.42
2022-10-13T03:46:33.636Z,10.40
2022-10-13T03:49:38.240Z,10.47
2022-10-13T03:52:42.156Z,10.47
2022-10-13T03:55:50.890Z,10.46
2022-10-13T03:58:59.728Z,10.42
2022-10-13T04:02:04.488Z,10.41
2022-10-13T04:05:09.172Z,10.40
2022-10-13T04:08:13.934Z,10.39
2022-10-13T04:11:18.913Z,10.46
2022-10-13T04:14:23.009Z,10.48
2022-10-13T04:17:26.794Z,10.47
2022-10-13T04:20:30.524Z,10.49
2022-10-13T04:23:34.617Z,10.49
2022-10-13T04:26:39.654Z,10.52
2022-10-13T04:29:43.654Z,10.54
2022-10-13T04:32:47.432Z,10.56
2022-10-13T04:35:51.878Z,10.62
2022-10-13T04:38:56.170Z,10.67
2022-10-13T04:42:00.533Z,10.73
2022-10-13T04:45:04.966Z,10.68
2022-10-13T04:48:08.486Z,10.71
2022-10-13T04:51:15.327Z,10.74
2022-10-13T04:54:19.446Z,10.77
2022-10-13T04:57:23.647Z,10.79
2022-10-13T05:00:27.473Z,10.81
2022-10-13T05:03:31.266Z,10.84
2022-10-13T05:06:48.580Z,10.86
2022-10-13T05:10:01.834Z,10.90
2022-10-13T05:13:05.728Z,10.91
2022-10-13T05:16:12.886Z,10.97
2022-10-13T05:19:17.150Z,10.96
2022-10-13T05:22:21.735Z,11.01
2022-10-13T05:25:28.236Z,11.03
2022-10-13T05:28:34.807Z,11.04
2022-10-13T05:31:40.044Z,11.07
2022-10-13T05:34:44.836Z,11.10
2022-10-13T05:37:48.970Z,11.13
2022-10-13T05:40:52.991Z,11.11
2022-10-13T05:44:00.486Z,11.14
2022-10-13T05:47:07.522Z,11.21
2022-10-13T05:50:12.101Z,11.18
2022-10-13T05:53:16.729Z,11.20
2022-10-13T05:56:27.264Z,11.25
2022-10-13T05:59:35.131Z,11.27
2022-10-13T06:03:07.857Z,11.36
2022-10-13T06:06:11.754Z,11.39
2022-10-13T06:09:16.486Z,11.45
2022-10-13T06:12:20.976Z,11.41
2022-10-13T06:15:28.131Z,11.43
2022-10-13T06:18:32.073Z,11.57
2022-10-13T06:21:36.151Z,11.61
2022-10-13T06:24:40.326Z,11.71
2022-10-13T06:27:44.686Z,11.75
2022-10-13T06:30:54.236Z,11.81
2022-10-13T06:33:59.246Z,11.90
2022-10-13T06:37:03.387Z,12.11
2022-10-13T06:40:07.644Z,12.19
2022-10-13T06:43:11.409Z,12.24
2022-10-13T06:46:15.922Z,12.33
2022-10-13T06:49:21.000Z,12.48
2022-10-13T06:52:24.910Z,12.53
2022-10-13T06:55:29.101Z,12.52
2022-10-13T06:58:35.126Z,12.52
2022-10-13T07:01:41.733Z,12.48
2022-10-13T07:04:47.337Z,12.37
2022-10-13T07:07:54.475Z,12.42
2022-10-13T07:10:58.743Z,12.44
2022-10-13T07:14:02.681Z,12.47
2022-10-13T07:17:07.089Z,12.47
2022-10-13T07:20:11.427Z,12.52
2022-10-13T07:23:15.308Z,12.65
2022-10-13T07:26:19.344Z,12.69
2022-10-13T07:29:23.573Z,12.76
2022-10-13T07:32:27.528Z,12.73
2022-10-13T07:35:31.566Z,12.72
2022-10-13T07:38:35.517Z,12.74
2022-10-13T07:41:39.377Z,12.76
2022-10-13T07:44:43.913Z,12.82
2022-10-13T07:47:47.693Z,13.06
2022-10-13T07:50:51.779Z,13.30
2022-10-13T07:53:55.698Z,13.55
2022-10-13T07:56:59.457Z,13.70
2022-10-13T08:00:06.083Z,13.81
2022-10-13T08:03:10.043Z,13.87
2022-10-13T08:06:14.348Z,13.93
2022-10-13T08:09:18.572Z,13.97
2022-10-13T08:12:22.704Z,14.03
2022-10-13T08:15:26.725Z,14.13
2022-10-13T08:18:30.763Z,14.24
2022-10-13T08:24:58.945Z,14.44
2022-10-13T08:28:03.052Z,14.57
2022-10-13T08:31:07.574Z,14.55
2022-10-13T08:34:12.101Z,14.55
2022-10-13T08:37:18.329Z,14.62
2022-10-13T08:40:23.139Z,14.69
2022-10-13T08:43:27.653Z,14.85
2022-10-13T08:46:53.879Z,15.02
2022-10-13T08:50:02.078Z,15.19
2022-10-13T08:53:13.131Z,15.39
2022-10-13T08:56:24.662Z,15.51
2022-10-13T08:59:28.999Z,15.58
2022-10-13T09:02:32.984Z,15.82
2022-10-13T09:05:44.456Z,15.93
2022-10-13T09:08:54.235Z,15.94
2022-10-13T09:11:58.753Z,15.87
2022-10-13T09:15:09.806Z,15.88
2022-10-13T09:18:14.243Z,15.85
2022-10-13T09:21:25.386Z,15.92
2022-10-13T09:24:29.376Z,16.01
2022-10-13T09:27:51.687Z,16.01
2022-10-13T09:31:14.205Z,16.01
2022-10-13T09:34:21.520Z,16.07
2022-10-13T09:37:25.976Z,16.07
2022-10-13T09:40:33.149Z,16.00
2022-10-13T09:43:40.750Z,15.98
2022-10-13T09:46:52.762Z,15.96
2022-10-13T09:50:14.534Z,16.03
2022-10-13T09:53:34.652Z,16.19
2022-10-13T09:56:46.124Z,16.35
2022-10-13T09:59:58.732Z,16.45
2022-10-13T10:03:22.161Z,16.59
2022-10-13T10:06:27.896Z,16.68
2022-10-13T10:09:40.202Z,16.60
2022-10-13T10:12:45.137Z,16.62
2022-10-13T10:15:55.821Z,16.71
2022-10-13T10:19:43.972Z,16.67
2022-10-13T10:23:31.068Z,16.63
2022-10-13T10:27:09.588Z,16.62
2022-10-13T10:30:19.376Z,16.70
2022-10-13T10:33:54.611Z,16.76
2022-10-13T10:37:21.100Z,16.84
2022-10-13T10:41:03.973Z,16.93
2022-10-13T10:44:15.799Z,16.97
2022-10-13T10:47:30.123Z,17.01
2022-10-13T10:50:35.118Z,17.07
2022-10-13T10:53:58.303Z,17.04
2022-10-13T10:57:12.447Z,17.02
2022-10-13T11:00:20.069Z,17.14
2022-10-13T11:03:29.414Z,17.09
2022-10-13T11:06:36.142Z,17.28
2022-10-13T11:09:42.909Z,17.45
2022-10-13T11:12:48.411Z,17.50
2022-10-13T11:15:53.454Z,17.54
2022-10-13T11:19:30.604Z,17.35
2022-10-13T11:22:34.885Z,17.17
2022-10-13T11:25:43.477Z,16.96
2022-10-13T11:28:48.260Z,16.89
2022-10-13T11:31:54.685Z,17.01
2022-10-13T11:35:35.519Z,17.13
2022-10-13T11:38:41.487Z,17.29
2022-10-13T11:42:03.825Z,17.42
2022-10-13T11:45:19.442Z,17.50
2022-10-13T11:48:39.993Z,17.59
2022-10-13T11:52:21.966Z,17.66
2022-10-13T11:55:51.126Z,17.60
2022-10-13T11:58:54.971Z,17.60
2022-10-13T12:02:11.283Z,17.52
2022-10-13T12:05:28.266Z,17.42
2022-10-13T12:08:35.152Z,17.33
2022-10-13T12:11:39.388Z,17.36
2022-10-13T12:14:47.582Z,17.33
2022-10-13T12:17:51.465Z,17.41
2022-10-13T12:20:58.479Z,17.42
2022-10-13T12:24:08.834Z,17.77
2022-10-13T12:27:22.358Z,17.88
2022-10-13T12:30:26.361Z,18.02
2022-10-13T12:33:38.838Z,18.01
2022-10-13T12:36:45.466Z,18.05
2022-10-13T12:39:50.032Z,17.82
2022-10-13T12:42:53.999Z,17.63
2022-10-13T12:45:58.093Z,17.50
2022-10-13T12:52:25.244Z,17.23
2022-10-13T12:55:30.991Z,17.22
2022-10-13T12:58:35.979Z,17.22
2022-10-13T13:01:40.300Z,17.30
2022-10-13T13:04:44.587Z,17.36
2022-10-13T13:07:54.933Z,17.22
2022-10-13T13:11:02.151Z,17.15
2022-10-13T13:14:35.927Z,17.26
2022-10-13T13:21:05.878Z,17.26
2022-10-13T13:24:16.458Z,17.30
2022-10-13T13:27:37.370Z,17.37
2022-10-13T13:30:41.786Z,17.52
2022-10-13T13:33:47.026Z,17.61
2022-10-13T13:36:51.032Z,17.66
2022-10-13T13:39:55.101Z,17.67
2022-10-13T13:42:59.199Z,17.65
2022-10-13T13:46:04.952Z,17.61
2022-10-13T13:49:11.666Z,17.55
2022-10-13T13:52:16.395Z,17.43
2022-10-13T13:55:20.398Z,17.36
2022-10-13T13:58:24.527Z,17.38
2022-10-13T14:01:28.361Z,17.34
2022-10-13T14:04:32.124Z,17.35
2022-10-13T14:07:36.224Z,17.35
2022-10-13T14:10:40.866Z,17.33
2022-10-13T14:13:44.526Z,17.32
2022-10-13T14:16:48.397Z,17.27
2022-10-13T14:19:52.267Z,17.22
2022-10-13T14:22:56.145Z,17.21
2022-10-13T14:25:59.908Z,17.20
2022-10-13T14:29:04.227Z,17.12
2022-10-13T14:32:08.085Z,17.09
2022-10-13T14:35:11.996Z,16.99
2022-10-13T14:38:15.978Z,17.00
2022-10-13T14:41:20.220Z,16.95
2022-10-13T14:44:24.270Z,17.03
2022-10-13T14:47:28.405Z,17.03
2022-10-13T14:50:32.647Z,17.02
2022-10-13T14:53:39.406Z,17.00
2022-10-13T14:56:44.726Z,16.93
2022-10-13T14:59:48.870Z,16.90
2022-10-13T15:02:52.792Z,16.81
2022-10-13T15:05:56.729Z,16.78
2022-10-13T15:09:00.925Z,16.79
2022-10-13T15:12:07.881Z,16.76
2022-10-13T15:15:11.990Z,16.69
2022-10-13T15:18:15.903Z,16.61
2022-10-13T15:21:20.165Z,16.57
2022-10-13T15:24:24.661Z,16.49
2022-10-13T15:27:28.511Z,16.44
2022-10-13T15:30:35.462Z,16.42
2022-10-13T15:33:42.824Z,16.39
2022-10-13T15:36:47.012Z,16.41
2022-10-13T15:39:56.011Z,16.41
2022-10-13T15:43:00.910Z,16.45
2022-10-13T15:46:07.261Z,16.39
2022-10-13T15:49:11.121Z,16.37
2022-10-13T15:52:15.253Z,16.35
2022-10-13T15:55:19.198Z,16.32
2022-10-13T15:58:23.587Z,16.30
2022-10-13T16:01:27.434Z,16.29
2022-10-13T16:04:36.409Z,16.30
2022-10-13T16:07:41.569Z,16.27
2022-10-13T16:10:45.672Z,16.24
2022-10-13T16:13:52.279Z,16.22
2022-10-13T16:16:58.432Z,16.21
2022-10-13T16:20:04.075Z,16.22
2022-10-13T16:23:08.237Z,16.14
2022-10-13T16:26:12.488Z,16.06
2022-10-13T16:29:16.878Z,16.00
2022-10-13T16:32:21.293Z,15.94
2022-10-13T16:35:25.680Z,15.91
2022-10-13T16:38:29.965Z,15.87
2022-10-13T16:41:34.365Z,15.87
2022-10-13T16:44:38.469Z,15.86
2022-10-13T16:47:42.626Z,15.84
2022-10-13T16:50:47.067Z,15.78
2022-10-13T16:53:52.677Z,15.74
2022-10-13T16:56:56.843Z,15.69
2022-10-13T17:00:00.825Z,15.62
2022-10-13T17:03:06.311Z,15.59
2022-10-13T17:06:11.211Z,15.55
2022-10-13T17:09:15.064Z,15.52
2022-10-13T17:12:19.167Z,15.52
2022-10-13T17:15:23.432Z,15.54
2022-10-13T17:18:27.735Z,15.58
2022-10-13T17:21:31.589Z,15.58
2022-10-13T17:24:35.782Z,15.59
2022-10-13T17:27:40.728Z,15.61
2022-10-13T17:30:45.227Z,15.61
2022-10-13T17:33:50.089Z,15.59
2022-10-13T17:36:54.191Z,15.58
2022-10-13T17:39:59.270Z,15.58
2022-10-13T17:43:03.482Z,15.58
2022-10-13T17:46:41.321Z,15.55
2022-10-13T17:49:45.358Z,15.54
2022-10-13T17:52:49.559Z,15.52
2022-10-13T17:55:54.701Z,15.47
2022-10-13T17:59:00.285Z,15.43
2022-10-13T18:02:04.472Z,15.37
2022-10-13T18:05:09.112Z,15.37
2022-10-13T18:08:13.321Z,15.34
2022-10-13T18:11:19.125Z,15.31
2022-10-13T18:14:24.943Z,15.27
2022-10-13T18:17:29.053Z,15.21
2022-10-13T18:20:37.784Z,15.14
2022-10-13T18:23:42.428Z,15.05
2022-10-13T18:26:46.768Z,14.99
2022-10-13T18:29:50.863Z,14.95
2022-10-13T18:32:54.810Z,14.94
2022-10-13T18:35:59.213Z,14.98
2022-10-13T18:39:11.306Z,15.02
2022-10-13T18:42:17.886Z,15.05
2022-10-13T18:45:22.026Z,15.10
2022-10-13T18:48:25.919Z,15.12
2022-10-13T18:51:35.591Z,15.10
2022-10-13T18:54:40.593Z,15.07
2022-10-13T18:57:44.798Z,15.06
2022-10-13T19:00:49.027Z,15.01
2022-10-13T19:03:54.641Z,14.99
2022-10-13T19:06:58.429Z,15.00
2022-10-13T19:10:02.446Z,14.99
2022-10-13T19:13:06.724Z,14.98
2022-10-13T19:16:16.679Z,14.95
2022-10-13T19:19:20.469Z,14.91
2022-10-13T19:22:24.719Z,14.90
2022-10-13T19:25:28.489Z,14.85
2022-10-13T19:28:32.430Z,14.80
2022-10-13T19:31:39.276Z,14.77
2022-10-13T19:34:43.157Z,14.76
2022-10-13T19:37:47.152Z,14.71
2022-10-13T19:40:52.491Z,14.67
2022-10-13T19:43:56.766Z,14.63
2022-10-13T19:47:00.842Z,14.59
2022-10-13T19:50:06.000Z,14.50
2022-10-13T19:53:11.055Z,14.46
2022-10-13T19:56:24.840Z,14.39
2022-10-13T19:59:28.859Z,14.34
2022-10-13T20:02:32.849Z,14.23
2022-10-13T20:05:38.386Z,14.14
2022-10-13T20:08:42.770Z,14.07
2022-10-13T20:11:51.586Z,14.01
2022-10-13T20:14:55.390Z,14.00
2022-10-13T20:17:59.326Z,13.97
2022-10-13T20:21:08.658Z,13.95
2022-10-13T20:24:12.979Z,13.96
2022-10-13T20:27:17.181Z,13.98
2022-10-13T20:30:21.375Z,13.95
2022-10-13T20:33:25.246Z,13.94
2022-10-13T20:36:29.158Z,13.94
2022-10-13T20:39:33.338Z,13.95
2022-10-13T20:42:37.260Z,13.94
2022-10-13T20:45:41.246Z,13.92
2022-10-13T20:49:09.375Z,13.91
2022-10-13T20:52:09.321Z,13.88
2022-10-13T20:55:13.372Z,13.87
2022-10-13T20:58:17.086Z,13.86
2022-10-13T21:01:22.355Z,13.85
2022-10-13T21:04:26.956Z,13.86
2022-10-13T21:07:31.224Z,13.81
2022-10-13T21:10:36.775Z,13.79
2022-10-13T21:13:41.931Z,13.79
2022-10-13T21:16:45.883Z,13.78
2022-10-13T21:19:49.688Z,13.75
2022-10-13T21:22:53.424Z,13.72
2022-10-13T21:26:00.761Z,13.73
2022-10-13T21:29:05.127Z,13.74
2022-10-13T21:32:09.150Z,13.72
2022-10-13T21:35:13.269Z,13.67
2022-10-13T21:38:19.933Z,13.65
2022-10-13T21:41:23.963Z,13.63
2022-10-13T21:44:28.082Z,13.60
2022-10-13T21:47:33.912Z,13.59
2022-10-13T21:50:38.130Z,13.59
2022-10-13T21:53:41.985Z,13.61
2022-10-13T21:56:46.000Z,13.57
2022-10-13T21:59:49.938Z,13.61
2022-10-13T22:02:53.874Z,13.61
2022-10-13T22:05:58.111Z,13.62
2022-10-13T22:09:04.150Z,13.64
2022-10-13T22:12:09.170Z,13.62
2022-10-13T22:15:13.272Z,13.63
2022-10-13T22:18:17.626Z,13.62
2022-10-13T22:21:28.145Z,13.66
2022-10-13T22:24:32.411Z,13.65
2022-10-13T22:27:36.710Z,13.60
2022-10-13T22:30:40.643Z,13.61
2022-10-13T22:33:44.909Z,13.60
2022-10-13T22:36:48.782Z,13.56
2022-10-13T22:39:53.036Z,13.60
2022-10-13T22:42:56.970Z,13.60
2022-10-13T22:46:04.261Z,13.58
2022-10-13T22:49:09.092Z,13.58
2022-10-13T22:52:13.241Z,13.57
2022-10-13T22:55:17.288Z,13.59
2022-10-13T22:58:21.584Z,13.61
2022-10-13T23:01:26.284Z,13.61
2022-10-13T23:04:30.291Z,13.61
2022-10-13T23:07:33.898Z,13.60
2022-10-13T23:10:37.913Z,13.58
2022-10-13T23:13:42.155Z,13.56
2022-10-13T23:16:46.157Z,13.56
2022-10-13T23:19:49.716Z,13.52
2022-10-13T23:22:53.742Z,13.55
2022-10-13T23:26:05.314Z,13.53
2022-10-13T23:29:09.601Z,13.51
2022-10-13T23:32:13.698Z,13.48
2022-10-13T23:35:17.702Z,13.50
2022-10-13T23:38:22.030Z,13.51
2022-10-13T23:41:26.675Z,13.51
2022-10-13T23:44:30.843Z,13.51
2022-10-13T23:47:35.047Z,13.52
2022-10-13T23:50:38.924Z,13.53
2022-10-13T23:53:43.060Z,13.55
2022-10-13T23:56:46.853Z,13.53
2022-10-13T23:59:50.656Z,13.52
